createdAt,value
2023-03-28T00:01:03.906Z,-1.70
2023-03-28T00:06:12.911Z,1.36
2023-03-28T00:11:19.648Z,2.40
2023-03-28T00:16:25.584Z,0.37
2023-03-28T00:21:31.894Z,-0.98
2023-03-28T00:26:35.547Z,-1.78
2023-03-28T00:31:39.554Z,-2.33
2023-03-28T00:36:42.723Z,-2.73
2023-03-28T00:41:45.901Z,-3.05
2023-03-28T00:46:48.655Z,-3.30
2023-03-28T00:51:56.929Z,-2.51
2023-03-28T00:57:02.247Z,0.85
2023-03-28T01:02:06.194Z,2.98
2023-03-28T01:07:08.900Z,2.22
2023-03-28T01:12:12.930Z,0.66
2023-03-28T01:17:16.130Z,-0.09
2023-03-28T01:22:35.782Z,-0.55
2023-03-28T01:27:54.500Z,-0.88
2023-03-28T01:33:25.160Z,-1.16
2023-03-28T01:38:43.497Z,-1.36
2023-03-28T01:44:12.667Z,-1.50
2023-03-28T01:49:26.706Z,-0.49
2023-03-28T01:54:55.696Z,2.49
2023-03-28T02:00:12.034Z,4.06
2023-03-28T02:05:19.347Z,2.44
2023-03-28T02:10:26.172Z,0.87
2023-03-28T02:15:31.073Z,0.05
2023-03-28T02:20:37.677Z,-0.46
2023-03-28T02:25:40.429Z,-0.84
2023-03-28T02:30:43.506Z,-0.38
2023-03-28T02:36:16.894Z,2.45
2023-03-28T02:42:04.476Z,4.25
2023-03-28T02:47:18.306Z,2.47
2023-03-28T02:52:35.198Z,1.19
2023-03-28T02:57:45.643Z,0.45
2023-03-28T03:02:54.076Z,-0.04
2023-03-28T03:07:56.821Z,-0.37
2023-03-28T03:12:59.475Z,-0.10
2023-03-28T03:18:02.172Z,2.70
2023-03-28T03:23:04.897Z,4.42
2023-03-28T03:28:07.614Z,2.88
2023-03-28T03:33:10.568Z,1.65
2023-03-28T03:38:13.875Z,0.98
2023-03-28T03:43:16.490Z,0.48
2023-03-28T03:48:19.148Z,0.09
2023-03-28T03:53:21.811Z,-0.20
2023-03-28T03:58:24.407Z,0.55
2023-03-28T04:03:27.124Z,3.54
2023-03-28T04:08:29.796Z,4.28
2023-03-28T04:13:32.427Z,2.60
2023-03-28T04:18:35.696Z,1.51
2023-03-28T04:23:43.622Z,0.82
2023-03-28T04:28:47.782Z,0.32
2023-03-28T04:33:53.875Z,-0.05
2023-03-28T04:38:58.454Z,-0.30
2023-03-28T04:44:01.528Z,-0.51
2023-03-28T04:49:04.184Z,0.28
2023-03-28T04:54:06.814Z,3.42
2023-03-28T04:59:12.190Z,4.45
2023-03-28T05:04:19.089Z,2.84
2023-03-28T05:09:22.785Z,1.95
2023-03-28T05:14:25.657Z,1.43
2023-03-28T05:19:28.289Z,1.22
2023-03-28T05:24:31.140Z,3.40
2023-03-28T05:29:33.790Z,4.89
2023-03-28T05:34:36.857Z,3.26
2023-03-28T05:39:39.958Z,2.12
2023-03-28T05:44:42.600Z,2.95
2023-03-28T05:49:45.528Z,3.90
2023-03-28T05:54:50.401Z,2.30
2023-03-28T05:59:53.855Z,3.40
2023-03-28T06:04:56.721Z,5.03
2023-03-28T06:10:00.484Z,3.29
2023-03-28T06:15:04.003Z,2.57
2023-03-28T06:20:09.982Z,4.81
2023-03-28T06:25:12.717Z,4.54
2023-03-28T06:30:15.698Z,2.84
2023-03-28T06:35:18.500Z,4.59
2023-03-28T06:40:21.188Z,5.12
2023-03-28T06:45:24.018Z,3.06
2023-03-28T06:50:26.837Z,4.15
2023-03-28T06:55:29.641Z,4.39
2023-03-28T07:00:32.556Z,3.05
2023-03-28T07:05:40.326Z,4.89
2023-03-28T07:10:43.378Z,3.39
2023-03-28T07:15:46.249Z,4.51
2023-03-28T07:20:58.005Z,5.22
2023-03-28T07:26:09.997Z,3.32
2023-03-28T07:31:12.758Z,4.96
2023-03-28T07:36:18.391Z,5.43
2023-03-28T07:41:22.605Z,3.93
2023-03-28T07:46:25.409Z,3.82
2023-03-28T07:51:28.069Z,5.50
2023-03-28T07:56:31.050Z,4.36
2023-03-28T08:01:33.679Z,3.78
2023-03-28T08:06:38.172Z,5.24
2023-03-28T08:11:42.268Z,3.68
2023-03-28T08:16:45.760Z,2.52
2023-03-28T08:21:48.419Z,3.52
2023-03-28T08:26:52.168Z,4.47
2023-03-28T08:31:54.911Z,3.81
2023-03-28T08:36:57.707Z,3.19
2023-03-28T08:42:13.601Z,2.45
2023-03-28T08:47:28.498Z,1.78
2023-03-28T08:52:31.721Z,2.95
2023-03-28T08:57:36.286Z,3.15
2023-03-28T09:02:39.249Z,2.18
2023-03-28T09:08:11.139Z,1.60
2023-03-28T09:13:31.076Z,2.63
2023-03-28T09:18:54.841Z,3.43
2023-03-28T09:24:06.357Z,2.91
2023-03-28T09:29:13.782Z,2.45
2023-03-28T09:34:35.507Z,3.67
2023-03-28T09:39:49.439Z,2.36
2023-03-28T09:45:07.837Z,1.63
2023-03-28T09:50:18.421Z,1.33
2023-03-28T09:55:24.021Z,2.55
2023-03-28T10:00:26.985Z,3.10
2023-03-28T10:05:40.839Z,2.02
2023-03-28T10:10:43.560Z,1.49
2023-03-28T10:15:48.110Z,1.23
2023-03-28T10:20:53.589Z,1.14
2023-03-28T10:26:02.780Z,2.70
2023-03-28T10:31:07.503Z,3.65
2023-03-28T10:36:12.604Z,2.54
2023-03-28T10:41:26.158Z,1.95
2023-03-28T10:46:33.212Z,1.75
2023-03-28T10:51:38.403Z,1.49
2023-03-28T10:56:52.560Z,1.37
2023-03-28T11:02:33.023Z,1.30
2023-03-28T11:07:46.183Z,1.28
2023-03-28T11:13:10.427Z,1.50
2023-03-28T11:18:57.727Z,1.89
2023-03-28T11:24:28.434Z,1.69
2023-03-28T11:29:49.315Z,1.46
2023-03-28T11:35:01.595Z,3.42
2023-03-28T11:40:18.427Z,2.85
2023-03-28T11:45:51.416Z,2.09
2023-03-28T11:51:14.617Z,1.79
2023-03-28T11:56:40.509Z,1.80
2023-03-28T12:01:47.565Z,1.92
2023-03-28T12:07:12.079Z,2.10
2023-03-28T12:12:35.574Z,2.20
2023-03-28T12:17:48.109Z,2.55
2023-03-28T12:23:00.032Z,2.55
2023-03-28T12:28:13.221Z,2.29
2023-03-28T12:33:15.931Z,2.44
2023-03-28T12:38:42.346Z,2.59
2023-03-28T12:43:47.651Z,2.30
2023-03-28T12:48:57.576Z,1.79
2023-03-28T12:54:16.993Z,1.55
2023-03-28T12:59:47.919Z,1.44
2023-03-28T13:05:04.647Z,1.34
2023-03-28T13:10:21.299Z,1.40
2023-03-28T13:15:29.636Z,1.54
2023-03-28T13:20:32.334Z,1.75
2023-03-28T13:25:36.323Z,2.02
2023-03-28T13:31:04.961Z,1.88
2023-03-28T13:36:13.463Z,3.55
2023-03-28T13:41:37.216Z,3.34
2023-03-28T13:46:44.597Z,2.02
2023-03-28T13:52:04.191Z,1.35
2023-03-28T13:57:13.227Z,3.18
2023-03-28T14:02:19.433Z,3.15
2023-03-28T14:07:28.311Z,1.69
2023-03-28T14:12:31.275Z,0.99
2023-03-28T14:17:36.436Z,0.73
2023-03-28T14:22:49.457Z,2.79
2023-03-28T14:28:08.525Z,2.83
2023-03-28T14:33:13.712Z,2.35
2023-03-28T14:38:32.423Z,1.98
2023-03-28T14:43:35.764Z,1.27
2023-03-28T14:48:41.158Z,0.90
2023-03-28T14:53:47.473Z,1.39
2023-03-28T14:58:53.484Z,1.71
2023-03-28T15:04:03.876Z,1.74
2023-03-28T15:09:31.380Z,3.97
2023-03-28T15:14:45.719Z,3.06
2023-03-28T15:19:54.292Z,1.69
2023-03-28T15:24:58.056Z,3.47
2023-03-28T15:30:07.024Z,4.35
2023-03-28T15:35:33.066Z,2.57
2023-03-28T15:40:44.087Z,2.57
2023-03-28T15:45:56.124Z,3.17
2023-03-28T15:51:04.050Z,3.40
2023-03-28T15:56:12.391Z,2.47
2023-03-28T16:01:24.478Z,1.52
2023-03-28T16:06:39.463Z,3.78
2023-03-28T16:11:43.564Z,3.08
2023-03-28T16:16:46.695Z,1.56
2023-03-28T16:21:49.502Z,1.66
2023-03-28T16:26:52.452Z,2.94
2023-03-28T16:31:55.405Z,1.26
2023-03-28T16:36:58.136Z,2.18
2023-03-28T16:42:01.333Z,2.60
2023-03-28T16:47:04.197Z,2.08
2023-03-28T16:52:07.475Z,3.72
2023-03-28T16:57:10.279Z,1.91
2023-03-28T17:02:13.061Z,2.63
2023-03-28T17:07:16.224Z,3.79
2023-03-28T17:12:21.068Z,1.78
2023-03-28T17:17:24.843Z,3.16
2023-03-28T17:22:28.347Z,3.74
2023-03-28T17:27:32.622Z,1.73
2023-03-28T17:32:37.811Z,1.97
2023-03-28T17:37:42.818Z,3.45
2023-03-28T17:42:45.574Z,1.84
2023-03-28T17:47:49.547Z,1.34
2023-03-28T17:52:52.959Z,3.30
2023-03-28T17:57:57.081Z,2.19
2023-03-28T18:02:59.802Z,0.69
2023-03-28T18:08:02.929Z,2.25
2023-03-28T18:13:06.145Z,1.40
2023-03-28T18:18:11.710Z,0.36
2023-03-28T18:23:14.655Z,0.53
2023-03-28T18:28:22.039Z,2.97
2023-03-28T18:33:26.048Z,1.82
2023-03-28T18:38:36.935Z,0.62
2023-03-28T18:43:42.320Z,-0.11
2023-03-28T18:48:45.485Z,-0.59
2023-03-28T18:53:48.174Z,-0.91
2023-03-28T18:58:50.868Z,-1.08
2023-03-28T19:03:55.314Z,0.79
2023-03-28T19:08:58.057Z,1.23
2023-03-28T19:14:01.118Z,0.02
2023-03-28T19:19:04.095Z,-0.64
2023-03-28T19:24:07.517Z,-1.02
2023-03-28T19:29:11.657Z,-1.27
2023-03-28T19:34:17.521Z,-1.46
2023-03-28T19:39:22.303Z,-1.60
2023-03-28T19:44:25.440Z,-1.74
2023-03-28T19:49:28.277Z,-1.85
2023-03-28T19:54:30.934Z,-1.94
2023-03-28T19:59:33.908Z,-2.00
2023-03-28T20:04:36.590Z,-2.04
2023-03-28T20:09:41.290Z,-2.08
2023-03-28T20:14:45.138Z,-2.15
2023-03-28T20:19:51.448Z,-1.59
2023-03-28T20:24:54.083Z,1.39
2023-03-28T20:29:56.705Z,1.37
2023-03-28T20:35:00.073Z,-0.18
2023-03-28T20:40:03.480Z,-1.03
2023-03-28T20:45:13.944Z,-1.62
2023-03-28T20:50:17.047Z,-2.07
2023-03-28T20:55:19.851Z,-2.45
2023-03-28T21:00:24.956Z,-2.73
2023-03-28T21:05:28.077Z,-2.92
2023-03-28T21:10:33.162Z,-3.04
2023-03-28T21:15:35.886Z,-3.15
2023-03-28T21:20:38.504Z,-3.23
2023-03-28T21:25:45.271Z,-3.25
2023-03-28T21:31:01.837Z,-0.38
2023-03-28T21:36:10.177Z,1.76
2023-03-28T21:41:13.632Z,-0.17
2023-03-28T21:46:18.670Z,-1.29
2023-03-28T21:51:21.660Z,-1.96
2023-03-28T21:56:24.316Z,-2.45
2023-03-28T22:01:26.980Z,-2.82
2023-03-28T22:06:29.624Z,-3.12
2023-03-28T22:11:32.812Z,-3.37
2023-03-28T22:16:38.455Z,-3.57
2023-03-28T22:21:41.069Z,-2.84
2023-03-28T22:26:44.989Z,0.27
2023-03-28T22:31:47.699Z,0.98
2023-03-28T22:36:50.480Z,-0.77
2023-03-28T22:41:54.137Z,-1.78
2023-03-28T22:47:02.355Z,-2.44
2023-03-28T22:52:06.195Z,-2.89
2023-03-28T22:57:08.953Z,-3.21
2023-03-28T23:02:11.712Z,-3.48
2023-03-28T23:07:14.647Z,-3.74
2023-03-28T23:12:17.270Z,-3.94
2023-03-28T23:17:19.898Z,-2.05
2023-03-28T23:22:23.600Z,1.22
2023-03-28T23:27:26.634Z,0.95
2023-03-28T23:32:29.289Z,-0.93
2023-03-28T23:37:34.252Z,-1.94
2023-03-28T23:42:37.166Z,-2.63
2023-03-28T23:47:39.921Z,-3.15
2023-03-28T23:52:42.662Z,-3.53
2023-03-28T23:57:45.288Z,-3.83
